sensor_id;sensor_type;location;lat;lon;timestamp;pressure;altitude;pressure_sealevel;temperature;humidity
26112;BME280;13829;48.990;8.346;2023-04-27T00:01:41;100589.22;;;10.58;91.75
26112;BME280;13829;48.990;8.346;2023-04-27T00:04:09;100586.53;;;10.51;91.85
26112;BME280;13829;48.990;8.346;2023-04-27T00:06:38;100580.31;;;10.38;91.59
26112;BME280;13829;48.990;8.346;2023-04-27T00:09:05;100580.16;;;10.27;91.99
26112;BME280;13829;48.990;8.346;2023-04-27T00:11:32;100577.44;;;10.16;93.30
26112;BME280;13829;48.990;8.346;2023-04-27T00:13:59;100575.63;;;10.07;93.68
26112;BME280;13829;48.990;8.346;2023-04-27T00:16:26;100572.06;;;10.02;94.53
26112;BME280;13829;48.990;8.346;2023-04-27T00:18:53;100568.44;;;9.91;94.57
26112;BME280;13829;48.990;8.346;2023-04-27T00:21:21;100559.66;;;9.89;94.26
26112;BME280;13829;48.990;8.346;2023-04-27T00:23:48;100568.53;;;10.00;93.87
26112;BME280;13829;48.990;8.346;2023-04-27T00:26:15;100561.41;;;9.88;93.64
26112;BME280;13829;48.990;8.346;2023-04-27T00:28:42;100565.63;;;9.74;93.56
26112;BME280;13829;48.990;8.346;2023-04-27T00:31:09;100567.16;;;9.53;94.22
26112;BME280;13829;48.990;8.346;2023-04-27T00:33:36;100574.75;;;9.32;94.92
26112;BME280;13829;48.990;8.346;2023-04-27T00:36:04;100568.47;;;9.17;95.53
26112;BME280;13829;48.990;8.346;2023-04-27T00:38:32;100572.72;;;9.09;94.98
26112;BME280;13829;48.990;8.346;2023-04-27T00:41:03;100567.38;;;9.03;95.59
26112;BME280;13829;48.990;8.346;2023-04-27T00:43:31;100575.13;;;8.93;96.73
26112;BME280;13829;48.990;8.346;2023-04-27T00:45:58;100567.09;;;8.82;98.08
26112;BME280;13829;48.990;8.346;2023-04-27T00:48:26;100568.84;;;8.82;99.46
26112;BME280;13829;48.990;8.346;2023-04-27T00:50:53;100568.78;;;8.79;98.87
26112;BME280;13829;48.990;8.346;2023-04-27T00:53:20;100569.81;;;8.90;99.34
26112;BME280;13829;48.990;8.346;2023-04-27T00:55:48;100566.31;;;8.88;99.97
26112;BME280;13829;48.990;8.346;2023-04-27T00:58:15;100572.22;;;8.75;100.00
26112;BME280;13829;48.990;8.346;2023-04-27T01:00:42;100562.75;;;8.83;100.00
26112;BME280;13829;48.990;8.346;2023-04-27T01:03:09;100561.25;;;9.01;100.00
26112;BME280;13829;48.990;8.346;2023-04-27T01:05:37;100569.16;;;9.05;100.00
26112;BME280;13829;48.990;8.346;2023-04-27T01:08:05;100575.97;;;8.91;100.00
26112;BME280;13829;48.990;8.346;2023-04-27T01:10:32;100571.47;;;8.82;100.00
26112;BME280;13829;48.990;8.346;2023-04-27T01:13:00;100569.81;;;8.90;100.00
26112;BME280;13829;48.990;8.346;2023-04-27T01:15:28;100578.50;;;8.86;100.00
26112;BME280;13829;48.990;8.346;2023-04-27T01:17:59;100578.03;;;9.15;100.00
26112;BME280;13829;48.990;8.346;2023-04-27T01:20:26;100579.00;;;9.23;100.00
26112;BME280;13829;48.990;8.346;2023-04-27T01:22:55;100583.47;;;9.27;99.15
26112;BME280;13829;48.990;8.346;2023-04-27T01:25:25;100581.78;;;9.34;96.65
26112;BME280;13829;48.990;8.346;2023-04-27T01:27:52;100582.63;;;9.30;97.10
26112;BME280;13829;48.990;8.346;2023-04-27T01:30:19;100588.53;;;9.15;92.93
26112;BME280;13829;48.990;8.346;2023-04-27T01:32:47;100584.22;;;9.20;91.08
26112;BME280;13829;48.990;8.346;2023-04-27T01:35:14;100584.34;;;9.29;91.76
26112;BME280;13829;48.990;8.346;2023-04-27T01:37:41;100582.72;;;9.38;91.69
26112;BME280;13829;48.990;8.346;2023-04-27T01:40:10;100583.59;;;9.40;93.81
26112;BME280;13829;48.990;8.346;2023-04-27T01:42:39;100580.28;;;9.53;93.63
26112;BME280;13829;48.990;8.346;2023-04-27T01:45:07;100578.41;;;9.44;93.69
26112;BME280;13829;48.990;8.346;2023-04-27T01:47:35;100575.72;;;9.38;95.93
26112;BME280;13829;48.990;8.346;2023-04-27T01:50:02;100589.75;;;9.42;96.16
26112;BME280;13829;48.990;8.346;2023-04-27T01:52:29;100581.06;;;9.46;96.47
26112;BME280;13829;48.990;8.346;2023-04-27T01:54:56;100586.28;;;9.43;96.94
26112;BME280;13829;48.990;8.346;2023-04-27T01:57:23;100582.91;;;9.56;97.36
26112;BME280;13829;48.990;8.346;2023-04-27T01:59:51;100575.16;;;9.66;97.51
26112;BME280;13829;48.990;8.346;2023-04-27T02:02:18;100578.66;;;9.66;96.89
26112;BME280;13829;48.990;8.346;2023-04-27T02:04:45;100580.38;;;9.62;96.86
26112;BME280;13829;48.990;8.346;2023-04-27T02:07:12;100583.13;;;9.72;96.04
26112;BME280;13829;48.990;8.346;2023-04-27T02:09:39;100590.03;;;9.63;96.21
26112;BME280;13829;48.990;8.346;2023-04-27T02:12:06;100587.31;;;9.56;96.06
26112;BME280;13829;48.990;8.346;2023-04-27T02:14:33;100584.63;;;9.51;95.78
26112;BME280;13829;48.990;8.346;2023-04-27T02:17:01;100588.13;;;9.50;95.75
26112;BME280;13829;48.990;8.346;2023-04-27T02:19:28;100589.81;;;9.45;95.14
26112;BME280;13829;48.990;8.346;2023-04-27T02:21:55;100597.63;;;9.40;96.98
26112;BME280;13829;48.990;8.346;2023-04-27T02:24:22;100596.81;;;9.46;97.24
26112;BME280;13829;48.990;8.346;2023-04-27T02:26:49;100586.25;;;9.41;96.99
26112;BME280;13829;48.990;8.346;2023-04-27T03:21:20;100604.50;;;9.32;100.00
26112;BME280;13829;48.990;8.346;2023-04-27T03:23:47;100600.00;;;9.23;100.00
26112;BME280;13829;48.990;8.346;2023-04-27T03:26:14;100601.69;;;9.17;100.00
26112;BME280;13829;48.990;8.346;2023-04-27T03:28:41;100606.97;;;9.20;100.00
26112;BME280;13829;48.990;8.346;2023-04-27T03:31:11;100606.19;;;9.27;100.00
26112;BME280;13829;48.990;8.346;2023-04-27T03:33:39;100606.22;;;9.28;98.43
26112;BME280;13829;48.990;8.346;2023-04-27T03:36:08;100612.34;;;9.27;93.32
26112;BME280;13829;48.990;8.346;2023-04-27T03:38:36;100612.53;;;9.44;91.90
26112;BME280;13829;48.990;8.346;2023-04-27T03:41:03;100612.63;;;9.49;88.90
26112;BME280;13829;48.990;8.346;2023-04-27T03:43:30;100601.94;;;9.37;87.12
26112;BME280;13829;48.990;8.346;2023-04-27T03:45:57;100605.50;;;9.42;85.25
26112;BME280;13829;48.990;8.346;2023-04-27T03:48:24;100613.38;;;9.42;85.97
26112;BME280;13829;48.990;8.346;2023-04-27T03:50:51;100616.00;;;9.42;85.38
26112;BME280;13829;48.990;8.346;2023-04-27T03:53:18;100616.78;;;9.35;85.96
26112;BME280;13829;48.990;8.346;2023-04-27T03:55:46;100621.38;;;9.51;84.99
26112;BME280;13829;48.990;8.346;2023-04-27T03:58:13;100624.81;;;9.47;85.76
26112;BME280;13829;48.990;8.346;2023-04-27T04:00:42;100625.75;;;9.51;85.16
26112;BME280;13829;48.990;8.346;2023-04-27T04:03:08;100626.59;;;9.48;85.47
26112;BME280;13829;48.990;8.346;2023-04-27T04:05:35;100620.44;;;9.46;85.69
26112;BME280;13829;48.990;8.346;2023-04-27T04:08:03;100627.53;;;9.52;84.99
26112;BME280;13829;48.990;8.346;2023-04-27T04:10:30;100631.44;;;9.17;81.72
26112;BME280;13829;48.990;8.346;2023-04-27T04:12:58;100628.81;;;9.19;82.30
26112;BME280;13829;48.990;8.346;2023-04-27T04:15:25;100626.03;;;9.08;82.20
26112;BME280;13829;48.990;8.346;2023-04-27T04:17:52;100627.78;;;9.07;82.98
26112;BME280;13829;48.990;8.346;2023-04-27T04:20:19;100626.00;;;9.05;82.84
26112;BME280;13829;48.990;8.346;2023-04-27T04:22:46;100622.56;;;9.09;84.58
26112;BME280;13829;48.990;8.346;2023-04-27T04:25:13;100621.84;;;9.21;82.37
26112;BME280;13829;48.990;8.346;2023-04-27T04:27:40;100623.53;;;9.16;84.18
26112;BME280;13829;48.990;8.346;2023-04-27T04:30:09;100627.91;;;9.17;81.79
26112;BME280;13829;48.990;8.346;2023-04-27T04:32:36;100622.69;;;9.18;82.95
26112;BME280;13829;48.990;8.346;2023-04-27T04:35:04;100624.53;;;9.25;82.09
26112;BME280;13829;48.990;8.346;2023-04-27T04:37:33;100620.88;;;9.14;80.41
26112;BME280;13829;48.990;8.346;2023-04-27T04:40:04;100625.84;;;8.95;80.30
26112;BME280;13829;48.990;8.346;2023-04-27T04:42:34;100625.94;;;9.02;82.61
26112;BME280;13829;48.990;8.346;2023-04-27T04:45:03;100625.69;;;8.83;81.77
26112;BME280;13829;48.990;8.346;2023-04-27T04:47:31;100619.00;;;9.04;82.40
26112;BME280;13829;48.990;8.346;2023-04-27T04:49:59;100628.66;;;9.08;79.37
26112;BME280;13829;48.990;8.346;2023-04-27T04:52:26;100628.81;;;9.17;76.55
26112;BME280;13829;48.990;8.346;2023-04-27T04:54:53;100636.28;;;8.89;75.85
26112;BME280;13829;48.990;8.346;2023-04-27T04:57:20;100633.56;;;8.83;76.28
26112;BME280;13829;48.990;8.346;2023-04-27T04:59:47;100640.72;;;8.95;79.28
26112;BME280;13829;48.990;8.346;2023-04-27T05:02:14;100638.22;;;9.03;78.16
26112;BME280;13829;48.990;8.346;2023-04-27T05:04:42;100636.59;;;9.11;76.97
26112;BME280;13829;48.990;8.346;2023-04-27T05:07:10;100641.06;;;9.18;75.90
26112;BME280;13829;48.990;8.346;2023-04-27T05:09:37;100641.88;;;9.16;75.05
26112;BME280;13829;48.990;8.346;2023-04-27T05:12:05;100643.94;;;9.37;72.57
26112;BME280;13829;48.990;8.346;2023-04-27T05:14:32;100651.06;;;9.47;71.81
26112;BME280;13829;48.990;8.346;2023-04-27T05:16:59;100649.28;;;9.43;71.65
26112;BME280;13829;48.990;8.346;2023-04-27T05:19:28;100658.13;;;9.51;72.08
26112;BME280;13829;48.990;8.346;2023-04-27T05:21:57;100651.31;;;9.66;74.93
26112;BME280;13829;48.990;8.346;2023-04-27T05:24:24;100656.59;;;9.69;73.73
26112;BME280;13829;48.990;8.346;2023-04-27T05:26:51;100648.91;;;9.83;72.10
26112;BME280;13829;48.990;8.346;2023-04-27T05:29:18;100653.38;;;9.91;70.20
26112;BME280;13829;48.990;8.346;2023-04-27T05:31:45;100667.44;;;9.96;70.04
26112;BME280;13829;48.990;8.346;2023-04-27T05:34:12;100666.59;;;9.99;68.18
26112;BME280;13829;48.990;8.346;2023-04-27T05:36:39;100658.09;;;10.20;70.31
26112;BME280;13829;48.990;8.346;2023-04-27T05:39:07;100664.31;;;10.28;69.06
26112;BME280;13829;48.990;8.346;2023-04-27T05:41:34;100666.22;;;10.42;67.43
26112;BME280;13829;48.990;8.346;2023-04-27T05:44:01;100663.78;;;10.65;70.42
26112;BME280;13829;48.990;8.346;2023-04-27T05:46:28;100668.31;;;10.82;68.89
26112;BME280;13829;48.990;8.346;2023-04-27T05:48:55;100665.66;;;10.75;66.57
26112;BME280;13829;48.990;8.346;2023-04-27T05:51:22;100671.00;;;10.83;67.82
26112;BME280;13829;48.990;8.346;2023-04-27T05:53:49;100666.66;;;10.91;67.43
26112;BME280;13829;48.990;8.346;2023-04-27T05:56:19;100683.53;;;11.21;65.58
26112;BME280;13829;48.990;8.346;2023-04-27T05:58:46;100681.00;;;11.40;63.00
26112;BME280;13829;48.990;8.346;2023-04-27T06:01:13;100686.19;;;11.20;61.78
26112;BME280;13829;48.990;8.346;2023-04-27T06:03:40;100680.25;;;11.61;66.56
26112;BME280;13829;48.990;8.346;2023-04-27T06:06:07;100684.59;;;11.45;64.91
26112;BME280;13829;48.990;8.346;2023-04-27T06:08:34;100689.06;;;11.62;65.24
26112;BME280;13829;48.990;8.346;2023-04-27T06:11:02;100687.25;;;11.53;61.46
26112;BME280;13829;48.990;8.346;2023-04-27T06:13:31;100692.44;;;11.39;61.26
26112;BME280;13829;48.990;8.346;2023-04-27T06:15:59;100692.56;;;11.61;61.51
26112;BME280;13829;48.990;8.346;2023-04-27T06:18:26;100693.44;;;11.56;61.07
26112;BME280;13829;48.990;8.346;2023-04-27T06:20:58;100696.94;;;11.58;61.50
26112;BME280;13829;48.990;8.346;2023-04-27T06:23:25;100700.38;;;11.45;60.90
26112;BME280;13829;48.990;8.346;2023-04-27T06:25:52;100698.78;;;11.75;63.67
26112;BME280;13829;48.990;8.346;2023-04-27T06:28:19;100703.22;;;11.81;60.29
26112;BME280;13829;48.990;8.346;2023-04-27T06:30:47;100700.50;;;11.67;60.57
26112;BME280;13829;48.990;8.346;2023-04-27T06:33:14;100706.69;;;11.75;61.76
26112;BME280;13829;48.990;8.346;2023-04-27T06:35:41;100710.38;;;12.05;62.08
26112;BME280;13829;48.990;8.346;2023-04-27T06:38:08;100711.16;;;11.88;61.93
26112;BME280;13829;48.990;8.346;2023-04-27T06:40:35;100706.00;;;12.13;61.34
26112;BME280;13829;48.990;8.346;2023-04-27T06:43:02;100700.75;;;12.26;60.69
26112;BME280;13829;48.990;8.346;2023-04-27T06:45:29;100704.34;;;12.51;60.33
26112;BME280;13829;48.990;8.346;2023-04-27T06:47:57;100699.09;;;12.77;60.01
26112;BME280;13829;48.990;8.346;2023-04-27T06:50:24;100697.34;;;13.01;60.06
26112;BME280;13829;48.990;8.346;2023-04-27T06:52:51;100703.47;;;13.49;58.04
26112;BME280;13829;48.990;8.346;2023-04-27T06:55:18;100711.38;;;13.52;56.19
26112;BME280;13829;48.990;8.346;2023-04-27T06:57:45;100711.41;;;13.49;53.74
26112;BME280;13829;48.990;8.346;2023-04-27T07:00:13;100714.94;;;13.39;57.09
26112;BME280;13829;48.990;8.346;2023-04-27T07:02:40;100714.88;;;13.58;53.91
26112;BME280;13829;48.990;8.346;2023-04-27T07:05:09;100717.53;;;13.64;54.52
26112;BME280;13829;48.990;8.346;2023-04-27T07:07:36;100713.94;;;13.82;52.82
26112;BME280;13829;48.990;8.346;2023-04-27T07:10:05;100703.34;;;13.86;50.99
26112;BME280;13829;48.990;8.346;2023-04-27T07:12:32;100707.78;;;13.83;51.84
26112;BME280;13829;48.990;8.346;2023-04-27T07:14:59;100704.31;;;13.62;52.92
26112;BME280;13829;48.990;8.346;2023-04-27T07:17:27;100702.25;;;14.34;51.65
26112;BME280;13829;48.990;8.346;2023-04-27T07:19:54;100702.88;;;14.81;49.31
26112;BME280;13829;48.990;8.346;2023-04-27T07:22:22;100699.97;;;15.10;49.20
26112;BME280;13829;48.990;8.346;2023-04-27T07:24:49;100698.06;;;15.25;50.29
26112;BME280;13829;48.990;8.346;2023-04-27T07:27:16;100698.03;;;15.28;47.79
26112;BME280;13829;48.990;8.346;2023-04-27T07:29:45;100697.34;;;15.06;47.28
26112;BME280;13829;48.990;8.346;2023-04-27T07:32:12;100697.75;;;15.56;47.48
26112;BME280;13829;48.990;8.346;2023-04-27T07:34:39;100694.03;;;15.72;46.43
26112;BME280;13829;48.990;8.346;2023-04-27T07:37:06;100689.44;;;16.54;46.83
26112;BME280;13829;48.990;8.346;2023-04-27T07:39:35;100682.81;;;16.79;46.42
26112;BME280;13829;48.990;8.346;2023-04-27T07:42:02;100671.69;;;17.12;44.66
26112;BME280;13829;48.990;8.346;2023-04-27T07:44:30;100672.13;;;19.00;43.32
26112;BME280;13829;48.990;8.346;2023-04-27T07:46:56;100664.44;;;19.87;38.02
26112;BME280;13829;48.990;8.346;2023-04-27T07:49:23;100666.16;;;20.48;37.89
26112;BME280;13829;48.990;8.346;2023-04-27T07:51:51;100658.84;;;20.53;38.30
26112;BME280;13829;48.990;8.346;2023-04-27T07:54:18;100658.09;;;20.78;36.78
26112;BME280;13829;48.990;8.346;2023-04-27T07:56:46;100659.53;;;20.88;36.42
26112;BME280;13829;48.990;8.346;2023-04-27T07:59:13;100659.16;;;21.49;36.19
26112;BME280;13829;48.990;8.346;2023-04-27T08:01:40;100658.03;;;21.57;36.52
26112;BME280;13829;48.990;8.346;2023-04-27T08:04:07;100655.09;;;22.12;34.12
26112;BME280;13829;48.990;8.346;2023-04-27T08:06:34;100663.59;;;21.76;32.58
26112;BME280;13829;48.990;8.346;2023-04-27T08:09:01;100658.69;;;21.87;35.16
26112;BME280;13829;48.990;8.346;2023-04-27T08:11:29;100659.91;;;22.02;33.44
26112;BME280;13829;48.990;8.346;2023-04-27T08:13:57;100659.91;;;21.53;34.92
26112;BME280;13829;48.990;8.346;2023-04-27T08:16:24;100658.94;;;21.81;36.23
26112;BME280;13829;48.990;8.346;2023-04-27T08:18:51;100661.28;;;21.90;33.68
26112;BME280;13829;48.990;8.346;2023-04-27T08:21:18;100658.09;;;22.03;32.76
26112;BME280;13829;48.990;8.346;2023-04-27T08:23:45;100663.41;;;21.57;35.08
26112;BME280;13829;48.990;8.346;2023-04-27T08:26:14;100656.19;;;20.81;38.03
26112;BME280;13829;48.990;8.346;2023-04-27T08:28:41;100659.50;;;21.15;34.48
26112;BME280;13829;48.990;8.346;2023-04-27T08:31:09;100657.44;;;20.96;34.32
26112;BME280;13829;48.990;8.346;2023-04-27T08:33:37;100661.84;;;20.14;38.64
26112;BME280;13829;48.990;8.346;2023-04-27T08:36:05;100666.44;;;19.79;39.75
26112;BME280;13829;48.990;8.346;2023-04-27T08:38:33;100660.38;;;19.40;37.36
26112;BME280;13829;48.990;8.346;2023-04-27T08:41:00;100655.66;;;19.82;40.02
26112;BME280;13829;48.990;8.346;2023-04-27T08:43:32;100654.97;;;19.75;35.86
26112;BME280;13829;48.990;8.346;2023-04-27T08:46:01;100655.03;;;19.40;37.22
26112;BME280;13829;48.990;8.346;2023-04-27T08:48:29;100655.78;;;19.13;39.06
26112;BME280;13829;48.990;8.346;2023-04-27T08:50:59;100648.31;;;19.27;38.34
26112;BME280;13829;48.990;8.346;2023-04-27T08:53:27;100655.63;;;19.20;39.25
26112;BME280;13829;48.990;8.346;2023-04-27T08:55:55;100656.78;;;19.43;40.07
26112;BME280;13829;48.990;8.346;2023-04-27T08:58:34;100654.50;;;19.29;42.57
26112;BME280;13829;48.990;8.346;2023-04-27T09:01:05;100656.75;;;19.10;42.18
26112;BME280;13829;48.990;8.346;2023-04-27T09:03:34;100658.72;;;19.36;39.65
26112;BME280;13829;48.990;8.346;2023-04-27T09:06:02;100658.81;;;19.33;40.18
26112;BME280;13829;48.990;8.346;2023-04-27T09:08:40;100649.56;;;19.14;43.66
26112;BME280;13829;48.990;8.346;2023-04-27T09:11:07;100654.97;;;19.44;42.70
26112;BME280;13829;48.990;8.346;2023-04-27T09:13:34;100650.25;;;19.22;41.46
26112;BME280;13829;48.990;8.346;2023-04-27T09:16:02;100659.03;;;18.89;40.22
26112;BME280;13829;48.990;8.346;2023-04-27T09:18:29;100659.88;;;18.93;41.23
26112;BME280;13829;48.990;8.346;2023-04-27T09:21:00;100654.53;;;18.93;45.39
26112;BME280;13829;48.990;8.346;2023-04-27T09:23:30;100652.44;;;19.06;41.51
26112;BME280;13829;48.990;8.346;2023-04-27T09:26:00;100649.81;;;19.04;39.85
26112;BME280;13829;48.990;8.346;2023-04-27T09:28:29;100645.00;;;18.83;40.71
26112;BME280;13829;48.990;8.346;2023-04-27T09:30:59;100649.72;;;18.71;39.50
26112;BME280;13829;48.990;8.346;2023-04-27T09:33:28;100648.63;;;18.42;42.11
26112;BME280;13829;48.990;8.346;2023-04-27T09:35:57;100654.78;;;18.46;43.91
26112;BME280;13829;48.990;8.346;2023-04-27T09:38:26;100648.50;;;18.49;42.45
26112;BME280;13829;48.990;8.346;2023-04-27T09:40:53;100650.53;;;18.37;41.43
26112;BME280;13829;48.990;8.346;2023-04-27T09:43:22;100650.53;;;18.37;42.80
26112;BME280;13829;48.990;8.346;2023-04-27T09:45:50;100653.38;;;18.30;43.84
26112;BME280;13829;48.990;8.346;2023-04-27T09:48:17;100649.19;;;18.19;42.44
26112;BME280;13829;48.990;8.346;2023-04-27T09:50:45;100647.00;;;17.98;41.85
26112;BME280;13829;48.990;8.346;2023-04-27T09:53:16;100647.28;;;17.38;42.43
26112;BME280;13829;48.990;8.346;2023-04-27T09:56:08;100639.25;;;17.41;43.62
26112;BME280;13829;48.990;8.346;2023-04-27T09:58:57;100649.50;;;17.15;42.27
26112;BME280;13829;48.990;8.346;2023-04-27T10:01:40;100648.44;;;17.23;42.82
26112;BME280;13829;48.990;8.346;2023-04-27T10:04:28;100648.88;;;16.99;43.02
26112;BME280;13829;48.990;8.346;2023-04-27T10:07:00;100634.50;;;17.12;44.17
26112;BME280;13829;48.990;8.346;2023-04-27T10:09:35;100636.84;;;17.29;46.05
26112;BME280;13829;48.990;8.346;2023-04-27T10:12:17;100633.63;;;17.11;45.23
26112;BME280;13829;48.990;8.346;2023-04-27T10:14:50;100632.31;;;17.34;43.17
26112;BME280;13829;48.990;8.346;2023-04-27T10:17:18;100625.47;;;17.66;44.08
26112;BME280;13829;48.990;8.346;2023-04-27T10:19:55;100632.47;;;17.70;43.58
26112;BME280;13829;48.990;8.346;2023-04-27T10:22:23;100625.81;;;17.91;42.10
26112;BME280;13829;48.990;8.346;2023-04-27T10:24:51;100627.16;;;18.11;42.21
26112;BME280;13829;48.990;8.346;2023-04-27T10:27:19;100623.34;;;18.24;41.43
26112;BME280;13829;48.990;8.346;2023-04-27T10:29:49;100619.09;;;18.16;42.43
26112;BME280;13829;48.990;8.346;2023-04-27T10:32:20;100622.78;;;18.08;42.14
26112;BME280;13829;48.990;8.346;2023-04-27T10:34:48;100617.28;;;18.18;41.62
26112;BME280;13829;48.990;8.346;2023-04-27T10:37:17;100622.13;;;17.99;39.98
26112;BME280;13829;48.990;8.346;2023-04-27T10:39:49;100624.47;;;18.13;40.75
26112;BME280;13829;48.990;8.346;2023-04-27T10:42:27;100622.94;;;18.02;41.77
26112;BME280;13829;48.990;8.346;2023-04-27T10:44:56;100620.75;;;18.20;41.50
26112;BME280;13829;48.990;8.346;2023-04-27T10:47:24;100614.72;;;18.51;39.82
26112;BME280;13829;48.990;8.346;2023-04-27T10:50:03;100616.63;;;18.46;41.47
26112;BME280;13829;48.990;8.346;2023-04-27T10:52:30;100617.63;;;18.40;39.50
26112;BME280;13829;48.990;8.346;2023-04-27T10:55:04;100606.94;;;18.41;41.04
26112;BME280;13829;48.990;8.346;2023-04-27T10:57:47;100609.53;;;18.45;43.09
26112;BME280;13829;48.990;8.346;2023-04-27T11:00:20;100605.50;;;18.26;39.34
26112;BME280;13829;48.990;8.346;2023-04-27T11:02:48;100608.31;;;18.22;40.03
26112;BME280;13829;48.990;8.346;2023-04-27T11:05:17;100612.31;;;18.40;41.06
26112;BME280;13829;48.990;8.346;2023-04-27T11:07:45;100609.16;;;18.60;38.06
26112;BME280;13829;48.990;8.346;2023-04-27T11:10:17;100603.97;;;18.54;39.03
26112;BME280;13829;48.990;8.346;2023-04-27T11:12:46;100603.53;;;18.72;41.21
26112;BME280;13829;48.990;8.346;2023-04-27T11:15:13;100599.00;;;18.76;38.46
26112;BME280;13829;48.990;8.346;2023-04-27T11:17:40;100605.44;;;18.67;37.53
26112;BME280;13829;48.990;8.346;2023-04-27T11:20:08;100594.94;;;18.61;39.36
26112;BME280;13829;48.990;8.346;2023-04-27T11:22:43;100594.69;;;18.70;38.10
26112;BME280;13829;48.990;8.346;2023-04-27T11:25:11;100585.53;;;18.81;39.65
26112;BME280;13829;48.990;8.346;2023-04-27T11:27:40;100591.63;;;18.86;37.59
26112;BME280;13829;48.990;8.346;2023-04-27T11:30:19;100583.34;;;18.98;37.76
26112;BME280;13829;48.990;8.346;2023-04-27T11:32:47;100587.53;;;18.72;36.10
26112;BME280;13829;48.990;8.346;2023-04-27T11:35:15;100586.81;;;18.66;37.07
26112;BME280;13829;48.990;8.346;2023-04-27T11:37:43;100586.78;;;18.31;36.75
26112;BME280;13829;48.990;8.346;2023-04-27T11:40:13;100577.63;;;18.05;37.08
26112;BME280;13829;48.990;8.346;2023-04-27T11:42:40;100568.53;;;18.16;36.49
26112;BME280;13829;48.990;8.346;2023-04-27T11:45:11;100564.31;;;18.43;36.39
26112;BME280;13829;48.990;8.346;2023-04-27T11:47:45;100562.66;;;18.73;37.56
26112;BME280;13829;48.990;8.346;2023-04-27T11:50:13;100559.03;;;18.76;38.03
26112;BME280;13829;48.990;8.346;2023-04-27T11:52:40;100554.84;;;19.00;37.06
26112;BME280;13829;48.990;8.346;2023-04-27T11:55:08;100556.53;;;18.70;37.07
26112;BME280;13829;48.990;8.346;2023-04-27T11:57:40;100549.25;;;18.42;36.77
26112;BME280;13829;48.990;8.346;2023-04-27T12:00:09;100556.84;;;18.21;37.51
26112;BME280;13829;48.990;8.346;2023-04-27T12:02:40;100553.88;;;17.96;37.94
26112;BME280;13829;48.990;8.346;2023-04-27T12:05:08;100554.16;;;18.21;41.00
26112;BME280;13829;48.990;8.346;2023-04-27T12:07:36;100552.78;;;18.42;39.88
26112;BME280;13829;48.990;8.346;2023-04-27T12:10:04;100551.91;;;18.77;40.46
26112;BME280;13829;48.990;8.346;2023-04-27T12:12:32;100553.66;;;18.78;38.61
26112;BME280;13829;48.990;8.346;2023-04-27T12:14:59;100542.84;;;18.84;39.74
26112;BME280;13829;48.990;8.346;2023-04-27T12:17:27;100546.66;;;19.08;39.59
26112;BME280;13829;48.990;8.346;2023-04-27T12:19:55;100543.59;;;19.22;39.75
26112;BME280;13829;48.990;8.346;2023-04-27T12:22:22;100537.97;;;19.31;37.33
26112;BME280;13829;48.990;8.346;2023-04-27T12:24:50;100534.28;;;19.35;37.43
26112;BME280;13829;48.990;8.346;2023-04-27T12:27:17;100531.72;;;19.32;37.58
26112;BME280;13829;48.990;8.346;2023-04-27T12:29:44;100539.00;;;19.27;37.93
26112;BME280;13829;48.990;8.346;2023-04-27T12:32:11;100533.94;;;19.18;38.21
26112;BME280;13829;48.990;8.346;2023-04-27T12:34:38;100538.31;;;19.19;37.02
26112;BME280;13829;48.990;8.346;2023-04-27T12:37:07;100539.91;;;19.26;36.16
26112;BME280;13829;48.990;8.346;2023-04-27T12:39:34;100536.03;;;19.06;35.82
26112;BME280;13829;48.990;8.346;2023-04-27T12:42:01;100528.56;;;19.19;36.57
26112;BME280;13829;48.990;8.346;2023-04-27T12:44:28;100530.78;;;19.03;37.44
26112;BME280;13829;48.990;8.346;2023-04-27T12:46:55;100536.41;;;19.24;38.37
26112;BME280;13829;48.990;8.346;2023-04-27T12:49:22;100537.91;;;19.03;38.24
26112;BME280;13829;48.990;8.346;2023-04-27T12:51:51;100533.44;;;19.03;37.63
26112;BME280;13829;48.990;8.346;2023-04-27T12:54:19;100521.47;;;19.18;38.60
26112;BME280;13829;48.990;8.346;2023-04-27T12:56:47;100523.28;;;19.18;39.13
26112;BME280;13829;48.990;8.346;2023-04-27T12:59:14;100519.53;;;19.23;39.18
26112;BME280;13829;48.990;8.346;2023-04-27T13:01:42;100524.19;;;19.17;39.60
26112;BME280;13829;48.990;8.346;2023-04-27T13:04:17;100515.00;;;19.27;39.35
26112;BME280;13829;48.990;8.346;2023-04-27T13:06:45;100517.44;;;19.03;37.29
26112;BME280;13829;48.990;8.346;2023-04-27T13:09:12;100516.44;;;19.07;38.50
26112;BME280;13829;48.990;8.346;2023-04-27T13:11:41;100519.66;;;18.86;37.42
26112;BME280;13829;48.990;8.346;2023-04-27T13:14:08;100513.03;;;19.02;38.06
26112;BME280;13829;48.990;8.346;2023-04-27T13:16:37;100508.03;;;19.21;40.17
26112;BME280;13829;48.990;8.346;2023-04-27T13:19:04;100497.47;;;19.18;40.10
26112;BME280;13829;48.990;8.346;2023-04-27T13:21:31;100504.34;;;19.27;40.59
26112;BME280;13829;48.990;8.346;2023-04-27T13:23:58;100505.78;;;19.37;37.55
26112;BME280;13829;48.990;8.346;2023-04-27T13:26:25;100506.25;;;19.22;37.17
26112;BME280;13829;48.990;8.346;2023-04-27T13:28:54;100504.34;;;19.27;37.74
26112;BME280;13829;48.990;8.346;2023-04-27T13:31:20;100500.47;;;19.37;40.56
26112;BME280;13829;48.990;8.346;2023-04-27T13:33:47;100507.56;;;19.38;39.23
26112;BME280;13829;48.990;8.346;2023-04-27T13:36:14;100505.19;;;19.58;39.02
26112;BME280;13829;48.990;8.346;2023-04-27T13:38:41;100492.44;;;19.67;37.93
26112;BME280;13829;48.990;8.346;2023-04-27T13:41:08;100494.75;;;19.50;37.20
26112;BME280;13829;48.990;8.346;2023-04-27T13:43:35;100492.72;;;19.58;37.04
26112;BME280;13829;48.990;8.346;2023-04-27T13:46:04;100488.94;;;19.65;40.71
26112;BME280;13829;48.990;8.346;2023-04-27T13:48:32;100495.53;;;19.83;39.47
26112;BME280;13829;48.990;8.346;2023-04-27T13:50:59;100490.25;;;19.22;36.67